Monte Alegre, Brazil
Current Conditions -  °F | °C
As of 8:00 PM on Tuesday 21 Oct 2014 (Local Time) from SBJU Reporting Station
Clear Clear  
Wind Chill: 90°   Ceiling: Unl
Heat Index: 93°   Visibility: 6mi
Dew Point: 68°   Wind: 5mph
Humidity: 49%   Direction: 290°WNW
Pressure: 29.97"   Gusts: NA
Location:  6.83°S, 38.78°W
Report Text: SBJU 212300Z 29004KT CAVOK 32/20 Q1015
Loading
Personal Weather Stations






























Interactive Weather Map
Tropical Storm Tracking
New forecast layout! Learn more

10-Day Weather Forecast

Advertisements
Track Severe Weather on mobile